DTW weather

Detroit Metropolitan Wayne County Airport
Detroit, Michigan, United States

Public forecast

Using degrees Fahrenheit for public forecast. Weather courtesy of forecast.io.

METAR (pilot weather report)

Retrieved 2018/07/16 23:53 UTC (1 hour ago):

KDTW 162353Z 35003KT 10SM SCT050 BKN100 BKN200 28/20 A2985 RMK AO2 SLP105 60000 T02780200 10322 20256 58002

TAF (pilot weather forecast)

Forecast is more than 12 hours old.

Retrieved 2018/07/16 00:22 UTC (1 day ago):

TAF KDTW 162320Z 1700/1806 35005KT P6SM VCTS SCT040CB BKN060 TEMPO 1700/1701 3SM TSRA BKN040CB FM170100 32006KT P6SM SCT050 BKN250 FM170500 34007KT P6SM SCT250 FM171500 33010G20KT P6SM SKC